sensor_id;sensor_type;location;lat;lon;timestamp;P1;durP1;ratioP1;P2;durP2;ratioP2
58661;SDS011;44432;49.786;22.760;2023-01-08T00:00:08;25.20;;;14.90;;
58661;SDS011;44432;49.786;22.760;2023-01-08T00:03:00;23.70;;;15.10;;
58661;SDS011;44432;49.786;22.760;2023-01-08T00:05:31;27.10;;;16.20;;
58661;SDS011;44432;49.786;22.760;2023-01-08T00:08:02;26.40;;;16.80;;
58661;SDS011;44432;49.786;22.760;2023-01-08T00:10:35;24.90;;;14.20;;
58661;SDS011;44432;49.786;22.760;2023-01-08T00:13:06;23.90;;;15.70;;
58661;SDS011;44432;49.786;22.760;2023-01-08T00:15:37;23.40;;;14.20;;
58661;SDS011;44432;49.786;22.760;2023-01-08T00:18:08;21.00;;;12.00;;
58661;SDS011;44432;49.786;22.760;2023-01-08T00:20:41;15.00;;;10.30;;
58661;SDS011;44432;49.786;22.760;2023-01-08T00:25:41;16.20;;;10.10;;
58661;SDS011;44432;49.786;22.760;2023-01-08T00:28:12;17.10;;;10.30;;
58661;SDS011;44432;49.786;22.760;2023-01-08T00:30:43;16.70;;;10.90;;
58661;SDS011;44432;49.786;22.760;2023-01-08T00:33:14;19.10;;;10.50;;
58661;SDS011;44432;49.786;22.760;2023-01-08T00:35:45;18.90;;;11.50;;
58661;SDS011;44432;49.786;22.760;2023-01-08T00:38:16;17.00;;;9.80;;
58661;SDS011;44432;49.786;22.760;2023-01-08T00:40:46;15.90;;;9.50;;
58661;SDS011;44432;49.786;22.760;2023-01-08T00:43:17;15.80;;;10.30;;
58661;SDS011;44432;49.786;22.760;2023-01-08T00:45:48;15.00;;;9.90;;
58661;SDS011;44432;49.786;22.760;2023-01-08T00:48:20;19.80;;;11.00;;
58661;SDS011;44432;49.786;22.760;2023-01-08T00:50:51;15.50;;;9.20;;
58661;SDS011;44432;49.786;22.760;2023-01-08T00:53:23;13.40;;;9.40;;
58661;SDS011;44432;49.786;22.760;2023-01-08T00:55:59;12.70;;;8.90;;
58661;SDS011;44432;49.786;22.760;2023-01-08T00:58:30;15.90;;;9.90;;
58661;SDS011;44432;49.786;22.760;2023-01-08T01:01:01;16.90;;;10.10;;
58661;SDS011;44432;49.786;22.760;2023-01-08T01:03:36;17.00;;;10.80;;
58661;SDS011;44432;49.786;22.760;2023-01-08T01:06:08;15.30;;;10.00;;
58661;SDS011;44432;49.786;22.760;2023-01-08T01:08:40;14.30;;;9.80;;
58661;SDS011;44432;49.786;22.760;2023-01-08T01:11:12;16.30;;;10.00;;
58661;SDS011;44432;49.786;22.760;2023-01-08T01:13:48;15.20;;;9.60;;
58661;SDS011;44432;49.786;22.760;2023-01-08T01:16:18;15.20;;;9.80;;
58661;SDS011;44432;49.786;22.760;2023-01-08T01:18:50;15.70;;;10.60;;
58661;SDS011;44432;49.786;22.760;2023-01-08T01:21:23;16.80;;;10.20;;
58661;SDS011;44432;49.786;22.760;2023-01-08T01:23:56;16.60;;;10.60;;
58661;SDS011;44432;49.786;22.760;2023-01-08T01:28:57;15.50;;;9.70;;
58661;SDS011;44432;49.786;22.760;2023-01-08T01:31:29;17.50;;;10.80;;
58661;SDS011;44432;49.786;22.760;2023-01-08T01:34:00;15.60;;;9.70;;
58661;SDS011;44432;49.786;22.760;2023-01-08T01:36:31;16.00;;;9.60;;
58661;SDS011;44432;49.786;22.760;2023-01-08T01:39:02;15.10;;;10.40;;
58661;SDS011;44432;49.786;22.760;2023-01-08T01:41:35;12.70;;;9.40;;
58661;SDS011;44432;49.786;22.760;2023-01-08T01:47:12;16.90;;;11.60;;
58661;SDS011;44432;49.786;22.760;2023-01-08T01:49:51;16.10;;;9.30;;
58661;SDS011;44432;49.786;22.760;2023-01-08T01:52:26;17.70;;;11.00;;
58661;SDS011;44432;49.786;22.760;2023-01-08T01:55:00;15.50;;;10.00;;
58661;SDS011;44432;49.786;22.760;2023-01-08T01:57:31;15.90;;;10.40;;
58661;SDS011;44432;49.786;22.760;2023-01-08T02:00:03;16.60;;;10.60;;
58661;SDS011;44432;49.786;22.760;2023-01-08T02:02:35;18.70;;;10.20;;
58661;SDS011;44432;49.786;22.760;2023-01-08T02:05:07;15.50;;;10.20;;
58661;SDS011;44432;49.786;22.760;2023-01-08T02:07:39;16.50;;;9.80;;
58661;SDS011;44432;49.786;22.760;2023-01-08T02:10:16;15.20;;;10.30;;
58661;SDS011;44432;49.786;22.760;2023-01-08T02:12:50;17.90;;;12.20;;
58661;SDS011;44432;49.786;22.760;2023-01-08T02:15:25;18.50;;;11.80;;
58661;SDS011;44432;49.786;22.760;2023-01-08T02:18:02;20.50;;;12.00;;
58661;SDS011;44432;49.786;22.760;2023-01-08T02:20:38;18.00;;;11.30;;
58661;SDS011;44432;49.786;22.760;2023-01-08T02:23:16;16.30;;;10.60;;
58661;SDS011;44432;49.786;22.760;2023-01-08T02:28:50;15.60;;;10.90;;
58661;SDS011;44432;49.786;22.760;2023-01-08T02:31:26;17.60;;;10.90;;
58661;SDS011;44432;49.786;22.760;2023-01-08T02:33:59;17.00;;;10.50;;
58661;SDS011;44432;49.786;22.760;2023-01-08T02:36:31;14.40;;;10.30;;
58661;SDS011;44432;49.786;22.760;2023-01-08T02:39:10;16.10;;;10.00;;
58661;SDS011;44432;49.786;22.760;2023-01-08T02:41:56;19.20;;;10.50;;
58661;SDS011;44432;49.786;22.760;2023-01-08T02:44:36;16.60;;;10.90;;
58661;SDS011;44432;49.786;22.760;2023-01-08T02:47:23;17.10;;;10.90;;
58661;SDS011;44432;49.786;22.760;2023-01-08T02:50:01;17.00;;;10.70;;
58661;SDS011;44432;49.786;22.760;2023-01-08T02:52:37;16.10;;;9.80;;
58661;SDS011;44432;49.786;22.760;2023-01-08T02:55:15;15.90;;;9.50;;
58661;SDS011;44432;49.786;22.760;2023-01-08T02:57:48;17.00;;;9.80;;
58661;SDS011;44432;49.786;22.760;2023-01-08T03:00:20;15.20;;;9.70;;
58661;SDS011;44432;49.786;22.760;2023-01-08T03:02:53;17.60;;;10.80;;
58661;SDS011;44432;49.786;22.760;2023-01-08T03:05:29;15.50;;;10.60;;
58661;SDS011;44432;49.786;22.760;2023-01-08T03:08:01;17.20;;;10.40;;
58661;SDS011;44432;49.786;22.760;2023-01-08T03:10:32;16.50;;;11.00;;
58661;SDS011;44432;49.786;22.760;2023-01-08T03:13:05;16.00;;;10.70;;
58661;SDS011;44432;49.786;22.760;2023-01-08T03:15:40;15.30;;;10.00;;
58661;SDS011;44432;49.786;22.760;2023-01-08T03:18:17;17.40;;;11.20;;
58661;SDS011;44432;49.786;22.760;2023-01-08T03:20:53;17.50;;;11.10;;
58661;SDS011;44432;49.786;22.760;2023-01-08T03:23:25;18.20;;;11.10;;
58661;SDS011;44432;49.786;22.760;2023-01-08T03:25:57;15.20;;;10.50;;
58661;SDS011;44432;49.786;22.760;2023-01-08T03:28:32;17.90;;;12.00;;
58661;SDS011;44432;49.786;22.760;2023-01-08T03:31:04;15.60;;;10.90;;
58661;SDS011;44432;49.786;22.760;2023-01-08T03:33:36;18.60;;;10.70;;
58661;SDS011;44432;49.786;22.760;2023-01-08T03:36:08;23.30;;;11.90;;
58661;SDS011;44432;49.786;22.760;2023-01-08T03:38:46;18.70;;;12.30;;
58661;SDS011;44432;49.786;22.760;2023-01-08T03:41:20;24.90;;;14.10;;
58661;SDS011;44432;49.786;22.760;2023-01-08T03:46:25;24.60;;;13.80;;
58661;SDS011;44432;49.786;22.760;2023-01-08T03:49:00;25.50;;;13.90;;
58661;SDS011;44432;49.786;22.760;2023-01-08T03:51:39;23.10;;;12.60;;
58661;SDS011;44432;49.786;22.760;2023-01-08T03:54:12;26.40;;;16.00;;
58661;SDS011;44432;49.786;22.760;2023-01-08T03:56:45;27.10;;;17.30;;
58661;SDS011;44432;49.786;22.760;2023-01-08T03:59:16;27.00;;;16.00;;
58661;SDS011;44432;49.786;22.760;2023-01-08T04:01:47;28.40;;;15.60;;
58661;SDS011;44432;49.786;22.760;2023-01-08T04:04:18;26.70;;;16.50;;
58661;SDS011;44432;49.786;22.760;2023-01-08T04:06:50;26.40;;;15.40;;
58661;SDS011;44432;49.786;22.760;2023-01-08T04:09:21;27.10;;;17.00;;
58661;SDS011;44432;49.786;22.760;2023-01-08T04:11:52;25.10;;;15.10;;
58661;SDS011;44432;49.786;22.760;2023-01-08T04:14:23;24.00;;;14.50;;
58661;SDS011;44432;49.786;22.760;2023-01-08T04:16:53;26.00;;;14.60;;
58661;SDS011;44432;49.786;22.760;2023-01-08T04:19:24;30.50;;;16.80;;
58661;SDS011;44432;49.786;22.760;2023-01-08T04:21:55;23.80;;;15.60;;
58661;SDS011;44432;49.786;22.760;2023-01-08T04:24:26;24.50;;;14.60;;
58661;SDS011;44432;49.786;22.760;2023-01-08T04:26:56;26.20;;;15.20;;
58661;SDS011;44432;49.786;22.760;2023-01-08T04:29:27;24.00;;;15.20;;
58661;SDS011;44432;49.786;22.760;2023-01-08T04:31:57;24.40;;;14.80;;
58661;SDS011;44432;49.786;22.760;2023-01-08T04:34:28;26.10;;;16.20;;
58661;SDS011;44432;49.786;22.760;2023-01-08T04:36:59;26.10;;;15.60;;
58661;SDS011;44432;49.786;22.760;2023-01-08T04:39:30;26.30;;;16.10;;
58661;SDS011;44432;49.786;22.760;2023-01-08T04:42:01;27.30;;;15.70;;
58661;SDS011;44432;49.786;22.760;2023-01-08T04:44:32;25.10;;;15.60;;
58661;SDS011;44432;49.786;22.760;2023-01-08T04:47:03;25.40;;;16.30;;
58661;SDS011;44432;49.786;22.760;2023-01-08T04:49:33;27.70;;;15.30;;
58661;SDS011;44432;49.786;22.760;2023-01-08T04:52:04;25.20;;;14.70;;
58661;SDS011;44432;49.786;22.760;2023-01-08T04:54:35;25.20;;;15.60;;
58661;SDS011;44432;49.786;22.760;2023-01-08T04:57:06;26.40;;;15.50;;
58661;SDS011;44432;49.786;22.760;2023-01-08T04:59:37;25.40;;;14.20;;
58661;SDS011;44432;49.786;22.760;2023-01-08T05:02:07;23.40;;;14.30;;
58661;SDS011;44432;49.786;22.760;2023-01-08T05:04:38;24.70;;;15.30;;
58661;SDS011;44432;49.786;22.760;2023-01-08T05:07:09;24.30;;;14.60;;
58661;SDS011;44432;49.786;22.760;2023-01-08T05:09:39;28.10;;;15.90;;
58661;SDS011;44432;49.786;22.760;2023-01-08T05:12:10;24.60;;;14.50;;
58661;SDS011;44432;49.786;22.760;2023-01-08T05:14:41;30.40;;;17.50;;
58661;SDS011;44432;49.786;22.760;2023-01-08T05:17:11;30.50;;;17.30;;
58661;SDS011;44432;49.786;22.760;2023-01-08T05:19:42;25.50;;;15.50;;
58661;SDS011;44432;49.786;22.760;2023-01-08T05:22:13;24.40;;;13.80;;
58661;SDS011;44432;49.786;22.760;2023-01-08T05:24:44;24.70;;;14.30;;
58661;SDS011;44432;49.786;22.760;2023-01-08T05:27:14;26.20;;;14.50;;
58661;SDS011;44432;49.786;22.760;2023-01-08T05:29:45;21.50;;;13.50;;
58661;SDS011;44432;49.786;22.760;2023-01-08T05:32:16;20.50;;;12.70;;
58661;SDS011;44432;49.786;22.760;2023-01-08T05:34:47;22.70;;;12.80;;
58661;SDS011;44432;49.786;22.760;2023-01-08T05:37:18;19.00;;;11.90;;
58661;SDS011;44432;49.786;22.760;2023-01-08T05:39:48;20.30;;;12.80;;
58661;SDS011;44432;49.786;22.760;2023-01-08T05:42:19;20.70;;;12.60;;
58661;SDS011;44432;49.786;22.760;2023-01-08T05:44:50;22.90;;;13.80;;
58661;SDS011;44432;49.786;22.760;2023-01-08T05:47:21;18.50;;;12.00;;
58661;SDS011;44432;49.786;22.760;2023-01-08T05:49:51;21.70;;;12.10;;
58661;SDS011;44432;49.786;22.760;2023-01-08T05:52:23;17.80;;;11.40;;
58661;SDS011;44432;49.786;22.760;2023-01-08T05:54:53;19.40;;;12.40;;
58661;SDS011;44432;49.786;22.760;2023-01-08T05:57:26;21.60;;;13.00;;
58661;SDS011;44432;49.786;22.760;2023-01-08T05:59:57;19.40;;;12.00;;
58661;SDS011;44432;49.786;22.760;2023-01-08T06:02:29;19.00;;;12.10;;
58661;SDS011;44432;49.786;22.760;2023-01-08T06:05:00;21.60;;;13.50;;
58661;SDS011;44432;49.786;22.760;2023-01-08T06:07:30;18.40;;;12.00;;
58661;SDS011;44432;49.786;22.760;2023-01-08T06:10:01;19.70;;;13.30;;
58661;SDS011;44432;49.786;22.760;2023-01-08T06:12:32;21.00;;;12.50;;
58661;SDS011;44432;49.786;22.760;2023-01-08T06:15:03;21.10;;;12.20;;
58661;SDS011;44432;49.786;22.760;2023-01-08T06:17:35;22.40;;;13.80;;
58661;SDS011;44432;49.786;22.760;2023-01-08T06:20:07;22.10;;;14.50;;
58661;SDS011;44432;49.786;22.760;2023-01-08T06:22:39;26.40;;;15.60;;
58661;SDS011;44432;49.786;22.760;2023-01-08T06:25:10;27.70;;;14.90;;
58661;SDS011;44432;49.786;22.760;2023-01-08T06:27:41;27.80;;;16.30;;
58661;SDS011;44432;49.786;22.760;2023-01-08T06:30:12;27.60;;;14.90;;
58661;SDS011;44432;49.786;22.760;2023-01-08T06:32:43;35.70;;;18.40;;
58661;SDS011;44432;49.786;22.760;2023-01-08T06:35:13;32.40;;;16.60;;
58661;SDS011;44432;49.786;22.760;2023-01-08T06:37:44;32.60;;;19.10;;
58661;SDS011;44432;49.786;22.760;2023-01-08T06:40:15;33.90;;;18.80;;
58661;SDS011;44432;49.786;22.760;2023-01-08T06:42:46;34.30;;;17.10;;
58661;SDS011;44432;49.786;22.760;2023-01-08T06:45:16;33.50;;;17.70;;
58661;SDS011;44432;49.786;22.760;2023-01-08T06:47:47;33.30;;;19.30;;
58661;SDS011;44432;49.786;22.760;2023-01-08T06:50:18;34.80;;;19.90;;
58661;SDS011;44432;49.786;22.760;2023-01-08T06:52:52;35.50;;;19.60;;
58661;SDS011;44432;49.786;22.760;2023-01-08T06:55:23;35.40;;;19.00;;
58661;SDS011;44432;49.786;22.760;2023-01-08T06:57:54;34.80;;;20.20;;
58661;SDS011;44432;49.786;22.760;2023-01-08T07:00:26;30.10;;;18.20;;
58661;SDS011;44432;49.786;22.760;2023-01-08T07:02:57;39.50;;;18.50;;
58661;SDS011;44432;49.786;22.760;2023-01-08T07:05:28;34.50;;;20.00;;
58661;SDS011;44432;49.786;22.760;2023-01-08T07:07:59;34.00;;;18.90;;
58661;SDS011;44432;49.786;22.760;2023-01-08T07:10:30;35.60;;;20.00;;
58661;SDS011;44432;49.786;22.760;2023-01-08T07:13:02;33.00;;;19.30;;
58661;SDS011;44432;49.786;22.760;2023-01-08T07:15:35;37.30;;;20.70;;
58661;SDS011;44432;49.786;22.760;2023-01-08T07:18:07;36.00;;;20.40;;
58661;SDS011;44432;49.786;22.760;2023-01-08T07:20:39;34.30;;;18.80;;
58661;SDS011;44432;49.786;22.760;2023-01-08T07:23:10;37.10;;;19.70;;
58661;SDS011;44432;49.786;22.760;2023-01-08T07:25:40;35.30;;;19.40;;
58661;SDS011;44432;49.786;22.760;2023-01-08T07:28:11;36.50;;;19.10;;
58661;SDS011;44432;49.786;22.760;2023-01-08T07:30:42;37.10;;;19.40;;
58661;SDS011;44432;49.786;22.760;2023-01-08T07:33:13;33.30;;;18.80;;
58661;SDS011;44432;49.786;22.760;2023-01-08T07:35:49;34.90;;;18.90;;
58661;SDS011;44432;49.786;22.760;2023-01-08T07:38:21;37.10;;;20.00;;
58661;SDS011;44432;49.786;22.760;2023-01-08T07:40:52;30.70;;;18.60;;
58661;SDS011;44432;49.786;22.760;2023-01-08T07:43:24;40.00;;;19.30;;
58661;SDS011;44432;49.786;22.760;2023-01-08T07:46:32;38.50;;;20.30;;
58661;SDS011;44432;49.786;22.760;2023-01-08T07:49:03;37.90;;;20.80;;
58661;SDS011;44432;49.786;22.760;2023-01-08T07:51:33;34.80;;;19.50;;
58661;SDS011;44432;49.786;22.760;2023-01-08T07:54:04;37.70;;;20.30;;
58661;SDS011;44432;49.786;22.760;2023-01-08T07:56:35;35.80;;;19.60;;
58661;SDS011;44432;49.786;22.760;2023-01-08T07:59:06;31.40;;;18.80;;
58661;SDS011;44432;49.786;22.760;2023-01-08T08:01:37;32.80;;;18.40;;
58661;SDS011;44432;49.786;22.760;2023-01-08T08:04:07;35.10;;;20.60;;
58661;SDS011;44432;49.786;22.760;2023-01-08T08:06:39;37.30;;;19.50;;
58661;SDS011;44432;49.786;22.760;2023-01-08T08:09:10;30.70;;;18.20;;
58661;SDS011;44432;49.786;22.760;2023-01-08T08:11:41;37.60;;;19.60;;
58661;SDS011;44432;49.786;22.760;2023-01-08T08:14:12;34.70;;;20.70;;
58661;SDS011;44432;49.786;22.760;2023-01-08T08:16:42;33.80;;;19.70;;
58661;SDS011;44432;49.786;22.760;2023-01-08T08:19:13;32.00;;;17.90;;
58661;SDS011;44432;49.786;22.760;2023-01-08T08:21:44;30.80;;;19.40;;
58661;SDS011;44432;49.786;22.760;2023-01-08T08:24:15;32.50;;;19.20;;
58661;SDS011;44432;49.786;22.760;2023-01-08T08:26:45;31.60;;;19.50;;
58661;SDS011;44432;49.786;22.760;2023-01-08T08:29:16;30.60;;;18.90;;
58661;SDS011;44432;49.786;22.760;2023-01-08T08:31:47;28.40;;;18.10;;
58661;SDS011;44432;49.786;22.760;2023-01-08T08:34:18;28.20;;;17.20;;
58661;SDS011;44432;49.786;22.760;2023-01-08T08:36:49;28.20;;;17.00;;
58661;SDS011;44432;49.786;22.760;2023-01-08T08:39:20;29.80;;;18.50;;
58661;SDS011;44432;49.786;22.760;2023-01-08T08:41:51;24.50;;;16.50;;
58661;SDS011;44432;49.786;22.760;2023-01-08T08:44:22;27.90;;;18.90;;
58661;SDS011;44432;49.786;22.760;2023-01-08T08:46:53;26.00;;;17.30;;
58661;SDS011;44432;49.786;22.760;2023-01-08T08:49:23;30.10;;;17.90;;
58661;SDS011;44432;49.786;22.760;2023-01-08T08:51:54;30.60;;;20.30;;
58661;SDS011;44432;49.786;22.760;2023-01-08T08:54:25;26.40;;;16.80;;
58661;SDS011;44432;49.786;22.760;2023-01-08T08:56:55;27.60;;;16.60;;
58661;SDS011;44432;49.786;22.760;2023-01-08T08:59:26;26.30;;;16.00;;
58661;SDS011;44432;49.786;22.760;2023-01-08T09:01:57;25.30;;;16.10;;
58661;SDS011;44432;49.786;22.760;2023-01-08T09:04:29;23.10;;;15.30;;
58661;SDS011;44432;49.786;22.760;2023-01-08T09:07:01;27.40;;;17.30;;
58661;SDS011;44432;49.786;22.760;2023-01-08T09:09:31;26.90;;;17.00;;
58661;SDS011;44432;49.786;22.760;2023-01-08T09:12:02;29.30;;;17.60;;
58661;SDS011;44432;49.786;22.760;2023-01-08T09:14:34;25.40;;;17.10;;
58661;SDS011;44432;49.786;22.760;2023-01-08T09:17:04;24.70;;;16.00;;
58661;SDS011;44432;49.786;22.760;2023-01-08T09:19:35;26.20;;;16.10;;
58661;SDS011;44432;49.786;22.760;2023-01-08T09:22:06;27.20;;;17.10;;
58661;SDS011;44432;49.786;22.760;2023-01-08T09:24:37;25.80;;;15.60;;
58661;SDS011;44432;49.786;22.760;2023-01-08T09:27:07;27.40;;;16.50;;
58661;SDS011;44432;49.786;22.760;2023-01-08T09:29:38;26.10;;;17.70;;
58661;SDS011;44432;49.786;22.760;2023-01-08T09:32:09;32.20;;;19.90;;
58661;SDS011;44432;49.786;22.760;2023-01-08T09:34:40;32.30;;;17.60;;
58661;SDS011;44432;49.786;22.760;2023-01-08T09:37:10;26.80;;;16.60;;
58661;SDS011;44432;49.786;22.760;2023-01-08T09:39:41;29.00;;;19.60;;
58661;SDS011;44432;49.786;22.760;2023-01-08T09:42:12;27.40;;;17.50;;
58661;SDS011;44432;49.786;22.760;2023-01-08T09:44:44;27.60;;;17.90;;
58661;SDS011;44432;49.786;22.760;2023-01-08T09:47:19;30.50;;;17.30;;
58661;SDS011;44432;49.786;22.760;2023-01-08T09:49:56;29.70;;;19.10;;
58661;SDS011;44432;49.786;22.760;2023-01-08T09:52:29;29.10;;;18.30;;
58661;SDS011;44432;49.786;22.760;2023-01-08T09:55:01;22.60;;;16.40;;
58661;SDS011;44432;49.786;22.760;2023-01-08T09:57:37;26.50;;;17.20;;
58661;SDS011;44432;49.786;22.760;2023-01-08T10:00:11;27.10;;;17.30;;
58661;SDS011;44432;49.786;22.760;2023-01-08T10:02:44;26.80;;;17.40;;
58661;SDS011;44432;49.786;22.760;2023-01-08T10:05:16;27.80;;;18.20;;
58661;SDS011;44432;49.786;22.760;2023-01-08T10:07:46;33.20;;;17.70;;
58661;SDS011;44432;49.786;22.760;2023-01-08T10:10:19;26.40;;;16.50;;
58661;SDS011;44432;49.786;22.760;2023-01-08T10:12:51;29.60;;;19.80;;
58661;SDS011;44432;49.786;22.760;2023-01-08T10:15:23;23.90;;;15.10;;
58661;SDS011;44432;49.786;22.760;2023-01-08T10:17:57;31.70;;;22.00;;
58661;SDS011;44432;49.786;22.760;2023-01-08T10:20:31;30.10;;;18.60;;
58661;SDS011;44432;49.786;22.760;2023-01-08T10:23:09;25.30;;;16.20;;
58661;SDS011;44432;49.786;22.760;2023-01-08T10:25:52;25.80;;;17.10;;
58661;SDS011;44432;49.786;22.760;2023-01-08T10:28:25;25.20;;;15.30;;
58661;SDS011;44432;49.786;22.760;2023-01-08T10:30:59;30.80;;;19.60;;
58661;SDS011;44432;49.786;22.760;2023-01-08T10:33:38;27.30;;;18.40;;
58661;SDS011;44432;49.786;22.760;2023-01-08T10:36:12;28.00;;;17.20;;
58661;SDS011;44432;49.786;22.760;2023-01-08T10:38:49;27.90;;;18.00;;
58661;SDS011;44432;49.786;22.760;2023-01-08T10:41:23;29.40;;;19.90;;
58661;SDS011;44432;49.786;22.760;2023-01-08T10:43:55;41.70;;;25.60;;
58661;SDS011;44432;49.786;22.760;2023-01-08T10:49:02;26.30;;;17.40;;
58661;SDS011;44432;49.786;22.760;2023-01-08T10:51:35;30.50;;;17.20;;
58661;SDS011;44432;49.786;22.760;2023-01-08T10:54:22;27.40;;;17.60;;
58661;SDS011;44432;49.786;22.760;2023-01-08T10:56:58;32.40;;;20.70;;
58661;SDS011;44432;49.786;22.760;2023-01-08T10:59:29;30.60;;;20.40;;
58661;SDS011;44432;49.786;22.760;2023-01-08T11:02:10;30.60;;;19.90;;
58661;SDS011;44432;49.786;22.760;2023-01-08T11:04:54;34.60;;;22.50;;
58661;SDS011;44432;49.786;22.760;2023-01-08T11:07:26;26.90;;;17.80;;
58661;SDS011;44432;49.786;22.760;2023-01-08T11:09:57;29.70;;;18.60;;
58661;SDS011;44432;49.786;22.760;2023-01-08T11:12:34;25.70;;;16.20;;
58661;SDS011;44432;49.786;22.760;2023-01-08T11:15:28;27.90;;;17.70;;
58661;SDS011;44432;49.786;22.760;2023-01-08T11:18:05;25.70;;;17.30;;
58661;SDS011;44432;49.786;22.760;2023-01-08T11:20:40;29.40;;;17.80;;
58661;SDS011;44432;49.786;22.760;2023-01-08T11:23:14;26.30;;;18.00;;
58661;SDS011;44432;49.786;22.760;2023-01-08T11:25:50;36.90;;;18.40;;
58661;SDS011;44432;49.786;22.760;2023-01-08T11:28:26;28.30;;;17.30;;
58661;SDS011;44432;49.786;22.760;2023-01-08T11:31:10;29.00;;;18.00;;
58661;SDS011;44432;49.786;22.760;2023-01-08T11:34:04;27.90;;;18.60;;
58661;SDS011;44432;49.786;22.760;2023-01-08T11:36:48;30.50;;;20.50;;
58661;SDS011;44432;49.786;22.760;2023-01-08T11:39:23;34.40;;;20.60;;
58661;SDS011;44432;49.786;22.760;2023-01-08T11:42:00;34.90;;;21.70;;
58661;SDS011;44432;49.786;22.760;2023-01-08T11:44:46;32.90;;;22.40;;
58661;SDS011;44432;49.786;22.760;2023-01-08T11:47:30;36.20;;;22.00;;
58661;SDS011;44432;49.786;22.760;2023-01-08T11:50:15;36.90;;;24.70;;
58661;SDS011;44432;49.786;22.760;2023-01-08T11:52:54;34.30;;;22.60;;
58661;SDS011;44432;49.786;22.760;2023-01-08T11:55:41;37.00;;;21.80;;
58661;SDS011;44432;49.786;22.760;2023-01-08T11:58:20;37.00;;;21.40;;
58661;SDS011;44432;49.786;22.760;2023-01-08T12:01:01;35.50;;;19.20;;
58661;SDS011;44432;49.786;22.760;2023-01-08T12:03:43;57.40;;;31.40;;
58661;SDS011;44432;49.786;22.760;2023-01-08T12:06:21;40.00;;;23.40;;
58661;SDS011;44432;49.786;22.760;2023-01-08T12:09:09;34.10;;;22.40;;
58661;SDS011;44432;49.786;22.760;2023-01-08T12:11:48;41.80;;;25.80;;
58661;SDS011;44432;49.786;22.760;2023-01-08T12:14:29;37.20;;;23.40;;
58661;SDS011;44432;49.786;22.760;2023-01-08T12:19:53;22.50;;;15.30;;
58661;SDS011;44432;49.786;22.760;2023-01-08T12:22:41;31.60;;;17.90;;
58661;SDS011;44432;49.786;22.760;2023-01-08T12:25:39;21.80;;;15.10;;
58661;SDS011;44432;49.786;22.760;2023-01-08T12:31:29;25.40;;;15.10;;
58661;SDS011;44432;49.786;22.760;2023-01-08T12:34:20;30.00;;;17.20;;
58661;SDS011;44432;49.786;22.760;2023-01-08T12:37:04;25.70;;;14.90;;
58661;SDS011;44432;49.786;22.760;2023-01-08T12:39:45;25.40;;;14.40;;
58661;SDS011;44432;49.786;22.760;2023-01-08T12:42:20;23.60;;;14.80;;
58661;SDS011;44432;49.786;22.760;2023-01-08T12:44:56;23.40;;;15.40;;
58661;SDS011;44432;49.786;22.760;2023-01-08T12:47:30;23.20;;;15.60;;
58661;SDS011;44432;49.786;22.760;2023-01-08T12:50:15;31.30;;;16.10;;
58661;SDS011;44432;49.786;22.760;2023-01-08T12:53:11;24.70;;;15.40;;
58661;SDS011;44432;49.786;22.760;2023-01-08T12:55:50;23.80;;;14.00;;
58661;SDS011;44432;49.786;22.760;2023-01-08T12:58:32;21.00;;;13.80;;
58661;SDS011;44432;49.786;22.760;2023-01-08T13:01:15;24.60;;;15.80;;
58661;SDS011;44432;49.786;22.760;2023-01-08T13:03:53;24.10;;;16.00;;
58661;SDS011;44432;49.786;22.760;2023-01-08T13:06:26;25.10;;;15.80;;
58661;SDS011;44432;49.786;22.760;2023-01-08T13:08:57;24.10;;;15.20;;
58661;SDS011;44432;49.786;22.760;2023-01-08T13:11:29;26.50;;;17.50;;
58661;SDS011;44432;49.786;22.760;2023-01-08T13:14:04;31.60;;;17.40;;
58661;SDS011;44432;49.786;22.760;2023-01-08T13:16:37;29.40;;;17.90;;
58661;SDS011;44432;49.786;22.760;2023-01-08T13:19:22;27.80;;;18.40;;
58661;SDS011;44432;49.786;22.760;2023-01-08T13:21:55;30.00;;;17.80;;
58661;SDS011;44432;49.786;22.760;2023-01-08T13:24:30;30.00;;;20.90;;
58661;SDS011;44432;49.786;22.760;2023-01-08T13:27:21;28.60;;;19.10;;
58661;SDS011;44432;49.786;22.760;2023-01-08T13:29:57;29.20;;;18.20;;
58661;SDS011;44432;49.786;22.760;2023-01-08T13:32:42;32.60;;;20.80;;
58661;SDS011;44432;49.786;22.760;2023-01-08T13:35:20;32.30;;;21.20;;
58661;SDS011;44432;49.786;22.760;2023-01-08T13:38:03;30.50;;;21.00;;
58661;SDS011;44432;49.786;22.760;2023-01-08T13:40:52;28.70;;;19.40;;
58661;SDS011;44432;49.786;22.760;2023-01-08T13:43:26;26.60;;;18.00;;
58661;SDS011;44432;49.786;22.760;2023-01-08T13:46:07;35.10;;;20.70;;
58661;SDS011;44432;49.786;22.760;2023-01-08T13:48:51;33.30;;;20.30;;
58661;SDS011;44432;49.786;22.760;2023-01-08T13:51:39;31.70;;;20.10;;
58661;SDS011;44432;49.786;22.760;2023-01-08T13:54:18;32.60;;;21.10;;
58661;SDS011;44432;49.786;22.760;2023-01-08T13:56:53;30.00;;;19.90;;
58661;SDS011;44432;49.786;22.760;2023-01-08T13:59:33;42.90;;;28.40;;
58661;SDS011;44432;49.786;22.760;2023-01-08T14:02:22;41.00;;;26.30;;
58661;SDS011;44432;49.786;22.760;2023-01-08T14:04:56;49.90;;;32.40;;
58661;SDS011;44432;49.786;22.760;2023-01-08T14:07:27;41.50;;;25.20;;
58661;SDS011;44432;49.786;22.760;2023-01-08T14:10:06;34.40;;;21.20;;
58661;SDS011;44432;49.786;22.760;2023-01-08T14:12:41;33.60;;;21.40;;
58661;SDS011;44432;49.786;22.760;2023-01-08T14:15:19;29.00;;;20.30;;
58661;SDS011;44432;49.786;22.760;2023-01-08T14:17:52;32.10;;;21.00;;
58661;SDS011;44432;49.786;22.760;2023-01-08T14:20:30;30.30;;;20.50;;
58661;SDS011;44432;49.786;22.760;2023-01-08T14:23:07;33.70;;;20.40;;
58661;SDS011;44432;49.786;22.760;2023-01-08T14:25:41;32.50;;;21.10;;
58661;SDS011;44432;49.786;22.760;2023-01-08T14:28:16;35.30;;;21.60;;
58661;SDS011;44432;49.786;22.760;2023-01-08T14:30:49;37.70;;;25.80;;
58661;SDS011;44432;49.786;22.760;2023-01-08T14:33:21;40.20;;;24.80;;
58661;SDS011;44432;49.786;22.760;2023-01-08T14:35:57;38.20;;;23.80;;
58661;SDS011;44432;49.786;22.760;2023-01-08T14:38:30;40.70;;;23.20;;
58661;SDS011;44432;49.786;22.760;2023-01-08T14:41:01;35.00;;;22.30;;
58661;SDS011;44432;49.786;22.760;2023-01-08T14:43:38;33.50;;;22.10;;
58661;SDS011;44432;49.786;22.760;2023-01-08T14:46:14;37.20;;;23.90;;
58661;SDS011;44432;49.786;22.760;2023-01-08T14:48:50;36.60;;;23.70;;
58661;SDS011;44432;49.786;22.760;2023-01-08T14:51:23;33.00;;;22.40;;
58661;SDS011;44432;49.786;22.760;2023-01-08T14:53:57;36.30;;;23.80;;
58661;SDS011;44432;49.786;22.760;2023-01-08T14:56:32;40.70;;;25.50;;
58661;SDS011;44432;49.786;22.760;2023-01-08T14:59:07;41.50;;;26.50;;
58661;SDS011;44432;49.786;22.760;2023-01-08T15:01:39;41.10;;;25.80;;
58661;SDS011;44432;49.786;22.760;2023-01-08T15:04:14;45.70;;;28.50;;
58661;SDS011;44432;49.786;22.760;2023-01-08T15:06:47;40.40;;;24.50;;
58661;SDS011;44432;49.786;22.760;2023-01-08T15:09:23;35.80;;;22.90;;